sensor_id;sensor_type;location;lat;lon;timestamp;P1;durP1;ratioP1;P2;durP2;ratioP2
57605;SDS011;43430;48.204;11.556;2023-01-24T00:00:25;59.45;;;20.38;;
57605;SDS011;43430;48.204;11.556;2023-01-24T00:02:50;68.97;;;23.23;;
57605;SDS011;43430;48.204;11.556;2023-01-24T00:05:15;62.03;;;20.80;;
57605;SDS011;43430;48.204;11.556;2023-01-24T00:07:41;54.58;;;20.45;;
57605;SDS011;43430;48.204;11.556;2023-01-24T00:10:06;68.28;;;21.73;;
57605;SDS011;43430;48.204;11.556;2023-01-24T00:12:32;61.50;;;22.08;;
57605;SDS011;43430;48.204;11.556;2023-01-24T00:14:58;58.90;;;20.95;;
57605;SDS011;43430;48.204;11.556;2023-01-24T00:17:23;62.38;;;21.80;;
57605;SDS011;43430;48.204;11.556;2023-01-24T00:19:49;61.30;;;22.48;;
57605;SDS011;43430;48.204;11.556;2023-01-24T00:22:14;59.03;;;22.05;;
57605;SDS011;43430;48.204;11.556;2023-01-24T00:24:40;51.30;;;20.83;;
57605;SDS011;43430;48.204;11.556;2023-01-24T00:27:05;60.47;;;21.45;;
57605;SDS011;43430;48.204;11.556;2023-01-24T00:29:30;60.78;;;20.85;;
57605;SDS011;43430;48.204;11.556;2023-01-24T00:31:56;55.65;;;19.90;;
57605;SDS011;43430;48.204;11.556;2023-01-24T00:34:22;53.70;;;21.52;;
57605;SDS011;43430;48.204;11.556;2023-01-24T00:36:47;54.70;;;20.95;;
57605;SDS011;43430;48.204;11.556;2023-01-24T00:39:12;53.90;;;18.88;;
57605;SDS011;43430;48.204;11.556;2023-01-24T00:41:38;55.50;;;20.27;;
57605;SDS011;43430;48.204;11.556;2023-01-24T00:44:03;55.22;;;19.58;;
57605;SDS011;43430;48.204;11.556;2023-01-24T00:46:28;56.08;;;18.88;;
57605;SDS011;43430;48.204;11.556;2023-01-24T00:48:54;45.15;;;17.02;;
57605;SDS011;43430;48.204;11.556;2023-01-24T00:51:19;54.45;;;19.13;;
57605;SDS011;43430;48.204;11.556;2023-01-24T00:53:45;55.90;;;18.85;;
57605;SDS011;43430;48.204;11.556;2023-01-24T00:56:10;50.08;;;17.75;;
57605;SDS011;43430;48.204;11.556;2023-01-24T00:58:35;47.40;;;18.73;;
57605;SDS011;43430;48.204;11.556;2023-01-24T01:01:01;58.63;;;18.15;;
57605;SDS011;43430;48.204;11.556;2023-01-24T01:03:29;51.70;;;18.60;;
57605;SDS011;43430;48.204;11.556;2023-01-24T01:05:58;48.60;;;17.52;;
57605;SDS011;43430;48.204;11.556;2023-01-24T01:08:31;49.63;;;19.05;;
57605;SDS011;43430;48.204;11.556;2023-01-24T01:10:57;49.67;;;17.70;;
57605;SDS011;43430;48.204;11.556;2023-01-24T01:13:23;51.28;;;17.48;;
57605;SDS011;43430;48.204;11.556;2023-01-24T01:15:49;48.78;;;18.05;;
57605;SDS011;43430;48.204;11.556;2023-01-24T01:18:15;47.17;;;17.13;;
57605;SDS011;43430;48.204;11.556;2023-01-24T01:20:40;50.70;;;16.90;;
57605;SDS011;43430;48.204;11.556;2023-01-24T01:23:06;49.10;;;19.08;;
57605;SDS011;43430;48.204;11.556;2023-01-24T01:25:31;49.72;;;18.17;;
57605;SDS011;43430;48.204;11.556;2023-01-24T01:27:56;45.78;;;18.02;;
57605;SDS011;43430;48.204;11.556;2023-01-24T01:30:22;43.83;;;16.10;;
57605;SDS011;43430;48.204;11.556;2023-01-24T01:32:47;52.30;;;18.75;;
57605;SDS011;43430;48.204;11.556;2023-01-24T01:35:13;53.35;;;17.55;;
57605;SDS011;43430;48.204;11.556;2023-01-24T01:37:38;46.83;;;16.60;;
57605;SDS011;43430;48.204;11.556;2023-01-24T01:40:05;46.38;;;16.85;;
57605;SDS011;43430;48.204;11.556;2023-01-24T01:42:39;47.03;;;18.52;;
57605;SDS011;43430;48.204;11.556;2023-01-24T01:50:36;52.87;;;17.77;;
57605;SDS011;43430;48.204;11.556;2023-01-24T01:53:05;51.40;;;17.38;;
57605;SDS011;43430;48.204;11.556;2023-01-24T01:55:32;60.08;;;18.17;;
57605;SDS011;43430;48.204;11.556;2023-01-24T01:58:01;51.80;;;17.48;;
57605;SDS011;43430;48.204;11.556;2023-01-24T02:00:28;50.53;;;17.58;;
57605;SDS011;43430;48.204;11.556;2023-01-24T02:02:55;56.75;;;18.23;;
57605;SDS011;43430;48.204;11.556;2023-01-24T02:05:44;43.90;;;17.05;;
57605;SDS011;43430;48.204;11.556;2023-01-24T02:08:10;53.53;;;18.40;;
57605;SDS011;43430;48.204;11.556;2023-01-24T02:10:41;57.25;;;18.77;;
57605;SDS011;43430;48.204;11.556;2023-01-24T02:13:25;53.38;;;17.42;;
57605;SDS011;43430;48.204;11.556;2023-01-24T02:15:51;64.10;;;20.10;;
57605;SDS011;43430;48.204;11.556;2023-01-24T02:18:27;59.53;;;19.02;;
57605;SDS011;43430;48.204;11.556;2023-01-24T02:20:53;53.20;;;19.20;;
57605;SDS011;43430;48.204;11.556;2023-01-24T02:28:42;55.72;;;19.10;;
57605;SDS011;43430;48.204;11.556;2023-01-24T02:31:10;50.15;;;18.75;;
57605;SDS011;43430;48.204;11.556;2023-01-24T02:33:36;64.03;;;19.55;;
57605;SDS011;43430;48.204;11.556;2023-01-24T02:38:43;53.83;;;19.33;;
57605;SDS011;43430;48.204;11.556;2023-01-24T02:41:11;54.75;;;18.02;;
57605;SDS011;43430;48.204;11.556;2023-01-24T02:43:39;58.25;;;18.83;;
57605;SDS011;43430;48.204;11.556;2023-01-24T02:46:11;58.85;;;19.05;;
57605;SDS011;43430;48.204;11.556;2023-01-24T02:48:37;50.47;;;18.17;;
57605;SDS011;43430;48.204;11.556;2023-01-24T02:51:02;54.42;;;18.83;;
57605;SDS011;43430;48.204;11.556;2023-01-24T02:53:46;59.83;;;18.75;;
57605;SDS011;43430;48.204;11.556;2023-01-24T02:56:11;65.65;;;18.67;;
57605;SDS011;43430;48.204;11.556;2023-01-24T02:58:55;58.17;;;20.15;;
57605;SDS011;43430;48.204;11.556;2023-01-24T03:01:21;60.08;;;18.60;;
57605;SDS011;43430;48.204;11.556;2023-01-24T03:03:48;55.83;;;19.40;;
57605;SDS011;43430;48.204;11.556;2023-01-24T03:06:16;60.10;;;19.13;;
57605;SDS011;43430;48.204;11.556;2023-01-24T03:08:42;57.08;;;19.23;;
57605;SDS011;43430;48.204;11.556;2023-01-24T03:11:09;62.00;;;18.75;;
57605;SDS011;43430;48.204;11.556;2023-01-24T03:13:35;61.92;;;20.55;;
57605;SDS011;43430;48.204;11.556;2023-01-24T03:16:20;60.22;;;21.02;;
57605;SDS011;43430;48.204;11.556;2023-01-24T03:19:04;63.58;;;20.98;;
57605;SDS011;43430;48.204;11.556;2023-01-24T03:21:48;57.20;;;20.67;;
57605;SDS011;43430;48.204;11.556;2023-01-24T03:24:33;72.53;;;20.58;;
57605;SDS011;43430;48.204;11.556;2023-01-24T03:27:17;63.60;;;19.65;;
57605;SDS011;43430;48.204;11.556;2023-01-24T03:30:02;61.53;;;20.67;;
57605;SDS011;43430;48.204;11.556;2023-01-24T03:32:47;68.95;;;21.73;;
57605;SDS011;43430;48.204;11.556;2023-01-24T03:35:32;67.80;;;20.42;;
57605;SDS011;43430;48.204;11.556;2023-01-24T03:37:57;71.85;;;20.50;;
57605;SDS011;43430;48.204;11.556;2023-01-24T03:40:42;62.15;;;18.95;;
57605;SDS011;43430;48.204;11.556;2023-01-24T03:43:07;73.05;;;20.75;;
57605;SDS011;43430;48.204;11.556;2023-01-24T03:45:37;59.70;;;19.30;;
57605;SDS011;43430;48.204;11.556;2023-01-24T03:48:05;62.30;;;21.13;;
57605;SDS011;43430;48.204;11.556;2023-01-24T03:50:37;64.63;;;21.08;;
57605;SDS011;43430;48.204;11.556;2023-01-24T03:53:24;63.80;;;20.67;;
57605;SDS011;43430;48.204;11.556;2023-01-24T03:55:52;56.63;;;18.98;;
57605;SDS011;43430;48.204;11.556;2023-01-24T03:58:19;61.90;;;21.15;;
57605;SDS011;43430;48.204;11.556;2023-01-24T04:00:45;63.40;;;19.90;;
57605;SDS011;43430;48.204;11.556;2023-01-24T04:03:11;63.88;;;20.80;;
57605;SDS011;43430;48.204;11.556;2023-01-24T04:05:36;60.03;;;19.95;;
57605;SDS011;43430;48.204;11.556;2023-01-24T04:08:02;64.18;;;21.23;;
57605;SDS011;43430;48.204;11.556;2023-01-24T04:10:28;53.42;;;19.35;;
57605;SDS011;43430;48.204;11.556;2023-01-24T04:12:55;63.75;;;21.85;;
57605;SDS011;43430;48.204;11.556;2023-01-24T04:15:23;71.50;;;19.40;;
57605;SDS011;43430;48.204;11.556;2023-01-24T04:17:50;61.13;;;19.38;;
57605;SDS011;43430;48.204;11.556;2023-01-24T04:20:16;56.15;;;18.85;;
57605;SDS011;43430;48.204;11.556;2023-01-24T04:22:42;67.60;;;20.38;;
57605;SDS011;43430;48.204;11.556;2023-01-24T04:25:08;66.20;;;20.40;;
57605;SDS011;43430;48.204;11.556;2023-01-24T04:27:35;68.78;;;20.77;;
57605;SDS011;43430;48.204;11.556;2023-01-24T04:30:01;70.97;;;22.25;;
57605;SDS011;43430;48.204;11.556;2023-01-24T04:32:27;68.13;;;19.60;;
57605;SDS011;43430;48.204;11.556;2023-01-24T04:34:53;68.47;;;22.58;;
57605;SDS011;43430;48.204;11.556;2023-01-24T04:37:18;66.45;;;20.30;;
57605;SDS011;43430;48.204;11.556;2023-01-24T04:39:44;72.93;;;21.33;;
57605;SDS011;43430;48.204;11.556;2023-01-24T04:42:09;62.75;;;18.80;;
57605;SDS011;43430;48.204;11.556;2023-01-24T04:44:34;62.90;;;19.20;;
57605;SDS011;43430;48.204;11.556;2023-01-24T04:47:00;66.93;;;20.60;;
57605;SDS011;43430;48.204;11.556;2023-01-24T04:49:25;59.78;;;20.27;;
57605;SDS011;43430;48.204;11.556;2023-01-24T04:51:51;72.80;;;20.50;;
57605;SDS011;43430;48.204;11.556;2023-01-24T04:54:16;79.50;;;21.30;;
57605;SDS011;43430;48.204;11.556;2023-01-24T04:56:42;73.68;;;20.52;;
57605;SDS011;43430;48.204;11.556;2023-01-24T04:59:10;68.88;;;20.70;;
57605;SDS011;43430;48.204;11.556;2023-01-24T05:01:36;70.93;;;21.27;;
57605;SDS011;43430;48.204;11.556;2023-01-24T05:04:01;67.47;;;21.00;;
57605;SDS011;43430;48.204;11.556;2023-01-24T05:06:28;69.25;;;20.45;;
57605;SDS011;43430;48.204;11.556;2023-01-24T05:08:54;68.50;;;20.45;;
57605;SDS011;43430;48.204;11.556;2023-01-24T05:11:20;71.95;;;20.65;;
57605;SDS011;43430;48.204;11.556;2023-01-24T05:13:46;69.75;;;20.38;;
57605;SDS011;43430;48.204;11.556;2023-01-24T05:16:11;76.32;;;22.40;;
57605;SDS011;43430;48.204;11.556;2023-01-24T05:18:37;64.93;;;22.70;;
57605;SDS011;43430;48.204;11.556;2023-01-24T05:21:06;62.88;;;19.48;;
57605;SDS011;43430;48.204;11.556;2023-01-24T05:23:34;70.38;;;22.08;;
57605;SDS011;43430;48.204;11.556;2023-01-24T05:26:02;69.63;;;19.63;;
57605;SDS011;43430;48.204;11.556;2023-01-24T05:28:28;74.90;;;20.83;;
57605;SDS011;43430;48.204;11.556;2023-01-24T05:30:58;68.00;;;20.17;;
57605;SDS011;43430;48.204;11.556;2023-01-24T05:33:24;71.35;;;20.30;;
57605;SDS011;43430;48.204;11.556;2023-01-24T05:35:55;64.10;;;20.58;;
57605;SDS011;43430;48.204;11.556;2023-01-24T05:38:22;66.07;;;21.48;;
57605;SDS011;43430;48.204;11.556;2023-01-24T05:40:47;70.50;;;21.73;;
57605;SDS011;43430;48.204;11.556;2023-01-24T05:43:12;61.60;;;21.02;;
57605;SDS011;43430;48.204;11.556;2023-01-24T05:45:38;58.58;;;19.60;;
57605;SDS011;43430;48.204;11.556;2023-01-24T05:48:03;53.38;;;17.75;;
57605;SDS011;43430;48.204;11.556;2023-01-24T05:50:29;59.80;;;19.38;;
57605;SDS011;43430;48.204;11.556;2023-01-24T05:52:55;58.35;;;20.35;;
57605;SDS011;43430;48.204;11.556;2023-01-24T05:55:20;54.45;;;18.67;;
57605;SDS011;43430;48.204;11.556;2023-01-24T05:57:45;55.90;;;19.77;;
57605;SDS011;43430;48.204;11.556;2023-01-24T06:00:11;49.15;;;17.90;;
57605;SDS011;43430;48.204;11.556;2023-01-24T06:02:36;57.47;;;20.65;;
57605;SDS011;43430;48.204;11.556;2023-01-24T06:05:02;49.25;;;18.15;;
57605;SDS011;43430;48.204;11.556;2023-01-24T06:07:27;56.83;;;19.75;;
57605;SDS011;43430;48.204;11.556;2023-01-24T06:09:53;57.30;;;18.27;;
57605;SDS011;43430;48.204;11.556;2023-01-24T06:12:18;50.75;;;18.90;;
57605;SDS011;43430;48.204;11.556;2023-01-24T06:14:43;53.05;;;18.50;;
57605;SDS011;43430;48.204;11.556;2023-01-24T06:17:09;64.35;;;20.40;;
57605;SDS011;43430;48.204;11.556;2023-01-24T06:19:34;64.97;;;19.38;;
57605;SDS011;43430;48.204;11.556;2023-01-24T06:22:14;54.75;;;19.95;;
57605;SDS011;43430;48.204;11.556;2023-01-24T06:24:42;57.75;;;20.48;;
57605;SDS011;43430;48.204;11.556;2023-01-24T06:27:08;61.33;;;21.20;;
57605;SDS011;43430;48.204;11.556;2023-01-24T06:29:34;54.80;;;18.70;;
57605;SDS011;43430;48.204;11.556;2023-01-24T06:34:46;55.03;;;18.90;;
57605;SDS011;43430;48.204;11.556;2023-01-24T06:40:15;46.67;;;17.98;;
57605;SDS011;43430;48.204;11.556;2023-01-24T06:42:42;59.28;;;19.75;;
57605;SDS011;43430;48.204;11.556;2023-01-24T06:45:08;57.40;;;19.88;;
57605;SDS011;43430;48.204;11.556;2023-01-24T06:47:35;76.65;;;21.02;;
57605;SDS011;43430;48.204;11.556;2023-01-24T06:50:00;56.85;;;19.58;;
57605;SDS011;43430;48.204;11.556;2023-01-24T06:52:26;60.78;;;19.73;;
57605;SDS011;43430;48.204;11.556;2023-01-24T06:54:51;59.85;;;19.13;;
57605;SDS011;43430;48.204;11.556;2023-01-24T06:57:16;66.90;;;19.85;;
57605;SDS011;43430;48.204;11.556;2023-01-24T06:59:42;51.35;;;18.35;;
57605;SDS011;43430;48.204;11.556;2023-01-24T07:02:09;61.95;;;19.17;;
57605;SDS011;43430;48.204;11.556;2023-01-24T07:04:35;71.75;;;20.65;;
57605;SDS011;43430;48.204;11.556;2023-01-24T07:07:01;68.20;;;19.60;;
57605;SDS011;43430;48.204;11.556;2023-01-24T07:09:27;61.28;;;19.35;;
57605;SDS011;43430;48.204;11.556;2023-01-24T07:11:53;50.05;;;17.00;;
57605;SDS011;43430;48.204;11.556;2023-01-24T07:14:21;51.72;;;19.35;;
57605;SDS011;43430;48.204;11.556;2023-01-24T07:16:47;67.90;;;20.92;;
57605;SDS011;43430;48.204;11.556;2023-01-24T07:19:15;64.18;;;18.98;;
57605;SDS011;43430;48.204;11.556;2023-01-24T07:21:42;62.03;;;19.27;;
57605;SDS011;43430;48.204;11.556;2023-01-24T07:24:12;63.03;;;19.45;;
57605;SDS011;43430;48.204;11.556;2023-01-24T07:26:40;61.60;;;18.77;;
57605;SDS011;43430;48.204;11.556;2023-01-24T07:29:06;59.75;;;19.08;;
57605;SDS011;43430;48.204;11.556;2023-01-24T07:31:32;69.22;;;20.98;;
57605;SDS011;43430;48.204;11.556;2023-01-24T07:33:57;71.32;;;21.90;;
57605;SDS011;43430;48.204;11.556;2023-01-24T07:36:23;59.90;;;18.92;;
57605;SDS011;43430;48.204;11.556;2023-01-24T07:38:48;54.17;;;17.95;;
57605;SDS011;43430;48.204;11.556;2023-01-24T07:41:18;61.30;;;18.92;;
57605;SDS011;43430;48.204;11.556;2023-01-24T07:43:43;63.72;;;20.00;;
57605;SDS011;43430;48.204;11.556;2023-01-24T07:46:08;59.80;;;19.00;;
57605;SDS011;43430;48.204;11.556;2023-01-24T07:48:34;63.55;;;19.73;;
57605;SDS011;43430;48.204;11.556;2023-01-24T07:51:00;63.00;;;17.17;;
57605;SDS011;43430;48.204;11.556;2023-01-24T07:53:25;59.00;;;18.52;;
57605;SDS011;43430;48.204;11.556;2023-01-24T07:55:51;61.90;;;19.83;;
57605;SDS011;43430;48.204;11.556;2023-01-24T07:58:16;67.03;;;20.85;;
57605;SDS011;43430;48.204;11.556;2023-01-24T08:00:41;61.53;;;18.63;;
57605;SDS011;43430;48.204;11.556;2023-01-24T08:03:09;67.80;;;18.00;;
57605;SDS011;43430;48.204;11.556;2023-01-24T08:05:36;64.40;;;18.63;;
57605;SDS011;43430;48.204;11.556;2023-01-24T08:08:02;61.38;;;19.25;;
57605;SDS011;43430;48.204;11.556;2023-01-24T08:10:27;60.53;;;17.80;;
57605;SDS011;43430;48.204;11.556;2023-01-24T08:12:54;63.42;;;17.17;;
57605;SDS011;43430;48.204;11.556;2023-01-24T08:15:20;60.10;;;17.92;;
57605;SDS011;43430;48.204;11.556;2023-01-24T08:17:45;62.70;;;18.27;;
57605;SDS011;43430;48.204;11.556;2023-01-24T08:20:11;64.00;;;17.88;;
57605;SDS011;43430;48.204;11.556;2023-01-24T08:22:37;53.53;;;17.20;;
57605;SDS011;43430;48.204;11.556;2023-01-24T08:25:06;52.78;;;18.25;;
57605;SDS011;43430;48.204;11.556;2023-01-24T08:27:32;53.33;;;16.23;;
57605;SDS011;43430;48.204;11.556;2023-01-24T08:29:58;50.97;;;15.68;;
57605;SDS011;43430;48.204;11.556;2023-01-24T08:32:23;52.67;;;16.52;;
57605;SDS011;43430;48.204;11.556;2023-01-24T08:34:48;52.97;;;18.63;;
57605;SDS011;43430;48.204;11.556;2023-01-24T08:37:14;51.08;;;17.00;;
57605;SDS011;43430;48.204;11.556;2023-01-24T08:39:40;61.03;;;18.45;;
57605;SDS011;43430;48.204;11.556;2023-01-24T08:42:05;51.40;;;14.98;;
57605;SDS011;43430;48.204;11.556;2023-01-24T08:44:30;50.75;;;16.25;;
57605;SDS011;43430;48.204;11.556;2023-01-24T08:46:56;50.33;;;16.40;;
57605;SDS011;43430;48.204;11.556;2023-01-24T08:49:21;50.35;;;16.70;;
57605;SDS011;43430;48.204;11.556;2023-01-24T08:51:47;63.30;;;18.20;;
57605;SDS011;43430;48.204;11.556;2023-01-24T08:54:12;52.97;;;17.25;;
57605;SDS011;43430;48.204;11.556;2023-01-24T08:56:38;47.95;;;15.75;;
57605;SDS011;43430;48.204;11.556;2023-01-24T08:59:03;54.75;;;17.55;;
57605;SDS011;43430;48.204;11.556;2023-01-24T09:01:29;52.78;;;18.15;;
57605;SDS011;43430;48.204;11.556;2023-01-24T09:03:54;57.15;;;18.63;;
57605;SDS011;43430;48.204;11.556;2023-01-24T09:06:21;59.85;;;18.73;;
57605;SDS011;43430;48.204;11.556;2023-01-24T09:08:47;56.30;;;17.55;;
57605;SDS011;43430;48.204;11.556;2023-01-24T09:11:12;49.58;;;16.65;;
57605;SDS011;43430;48.204;11.556;2023-01-24T09:13:38;52.00;;;17.77;;
57605;SDS011;43430;48.204;11.556;2023-01-24T09:16:03;53.60;;;17.50;;
57605;SDS011;43430;48.204;11.556;2023-01-24T09:18:29;59.78;;;19.63;;
57605;SDS011;43430;48.204;11.556;2023-01-24T09:20:54;49.33;;;17.10;;
57605;SDS011;43430;48.204;11.556;2023-01-24T09:23:20;46.60;;;17.25;;
57605;SDS011;43430;48.204;11.556;2023-01-24T09:25:49;49.15;;;17.13;;
57605;SDS011;43430;48.204;11.556;2023-01-24T09:28:16;44.25;;;16.27;;
57605;SDS011;43430;48.204;11.556;2023-01-24T09:30:44;49.22;;;18.88;;
57605;SDS011;43430;48.204;11.556;2023-01-24T09:33:10;47.83;;;16.60;;
57605;SDS011;43430;48.204;11.556;2023-01-24T09:35:36;42.30;;;16.38;;
57605;SDS011;43430;48.204;11.556;2023-01-24T09:38:01;44.55;;;16.77;;
57605;SDS011;43430;48.204;11.556;2023-01-24T09:40:28;56.55;;;18.15;;
57605;SDS011;43430;48.204;11.556;2023-01-24T09:43:06;52.17;;;17.92;;
57605;SDS011;43430;48.204;11.556;2023-01-24T09:45:43;56.92;;;18.65;;
57605;SDS011;43430;48.204;11.556;2023-01-24T09:48:17;55.72;;;17.92;;
57605;SDS011;43430;48.204;11.556;2023-01-24T09:51:19;48.33;;;18.65;;
57605;SDS011;43430;48.204;11.556;2023-01-24T09:53:45;56.55;;;18.45;;
57605;SDS011;43430;48.204;11.556;2023-01-24T09:56:19;52.80;;;18.27;;
57605;SDS011;43430;48.204;11.556;2023-01-24T10:01:48;55.75;;;19.77;;
57605;SDS011;43430;48.204;11.556;2023-01-24T10:23:31;50.13;;;16.95;;
57605;SDS011;43430;48.204;11.556;2023-01-24T10:28:51;45.72;;;15.02;;
57605;SDS011;43430;48.204;11.556;2023-01-24T10:33:49;48.75;;;16.88;;
57605;SDS011;43430;48.204;11.556;2023-01-24T10:39:03;53.75;;;17.38;;
57605;SDS011;43430;48.204;11.556;2023-01-24T10:41:30;54.17;;;17.95;;
57605;SDS011;43430;48.204;11.556;2023-01-24T10:44:01;54.17;;;17.25;;
57605;SDS011;43430;48.204;11.556;2023-01-24T10:49:20;42.38;;;16.33;;
57605;SDS011;43430;48.204;11.556;2023-01-24T10:52:10;43.72;;;15.25;;
57605;SDS011;43430;48.204;11.556;2023-01-24T10:54:44;52.60;;;17.08;;
57605;SDS011;43430;48.204;11.556;2023-01-24T10:57:38;49.03;;;17.10;;
57605;SDS011;43430;48.204;11.556;2023-01-24T11:02:39;43.63;;;14.85;;
57605;SDS011;43430;48.204;11.556;2023-01-24T11:05:05;42.85;;;14.82;;
57605;SDS011;43430;48.204;11.556;2023-01-24T11:07:36;40.20;;;14.50;;
57605;SDS011;43430;48.204;11.556;2023-01-24T11:10:37;39.97;;;15.38;;
57605;SDS011;43430;48.204;11.556;2023-01-24T11:16:01;40.72;;;15.90;;
57605;SDS011;43430;48.204;11.556;2023-01-24T11:18:30;39.78;;;15.23;;
57605;SDS011;43430;48.204;11.556;2023-01-24T11:21:07;39.97;;;14.40;;
57605;SDS011;43430;48.204;11.556;2023-01-24T11:23:32;36.22;;;14.50;;
57605;SDS011;43430;48.204;11.556;2023-01-24T11:25:58;34.22;;;13.77;;
57605;SDS011;43430;48.204;11.556;2023-01-24T11:28:33;39.35;;;12.70;;
57605;SDS011;43430;48.204;11.556;2023-01-24T11:31:04;37.50;;;14.32;;
57605;SDS011;43430;48.204;11.556;2023-01-24T11:39:27;34.47;;;14.30;;
57605;SDS011;43430;48.204;11.556;2023-01-24T11:42:17;40.17;;;16.13;;
57605;SDS011;43430;48.204;11.556;2023-01-24T11:45:00;40.97;;;17.05;;
57605;SDS011;43430;48.204;11.556;2023-01-24T11:47:43;33.65;;;14.60;;
57605;SDS011;43430;48.204;11.556;2023-01-24T12:03:54;44.33;;;20.00;;
57605;SDS011;43430;48.204;11.556;2023-01-24T12:07:03;37.15;;;15.20;;
57605;SDS011;43430;48.204;11.556;2023-01-24T12:09:38;41.35;;;16.15;;
57605;SDS011;43430;48.204;11.556;2023-01-24T12:22:38;38.20;;;15.65;;
57605;SDS011;43430;48.204;11.556;2023-01-24T12:25:15;38.65;;;15.98;;
57605;SDS011;43430;48.204;11.556;2023-01-24T12:27:58;41.88;;;15.95;;
57605;SDS011;43430;48.204;11.556;2023-01-24T12:30:31;52.45;;;16.55;;
57605;SDS011;43430;48.204;11.556;2023-01-24T12:33:26;38.78;;;16.33;;
57605;SDS011;43430;48.204;11.556;2023-01-24T12:35:58;41.42;;;15.98;;
57605;SDS011;43430;48.204;11.556;2023-01-24T12:46:35;38.15;;;15.00;;
57605;SDS011;43430;48.204;11.556;2023-01-24T12:52:31;45.25;;;20.20;;
57605;SDS011;43430;48.204;11.556;2023-01-24T12:55:08;42.63;;;20.60;;
57605;SDS011;43430;48.204;11.556;2023-01-24T13:00:12;37.55;;;14.43;;
57605;SDS011;43430;48.204;11.556;2023-01-24T13:02:48;36.35;;;14.75;;
57605;SDS011;43430;48.204;11.556;2023-01-24T13:07:51;34.45;;;13.57;;
57605;SDS011;43430;48.204;11.556;2023-01-24T13:13:01;35.00;;;14.20;;
57605;SDS011;43430;48.204;11.556;2023-01-24T13:15:47;35.53;;;15.73;;
57605;SDS011;43430;48.204;11.556;2023-01-24T13:18:25;36.95;;;13.65;;
57605;SDS011;43430;48.204;11.556;2023-01-24T13:29:29;34.88;;;13.88;;
57605;SDS011;43430;48.204;11.556;2023-01-24T13:32:08;33.67;;;14.45;;
57605;SDS011;43430;48.204;11.556;2023-01-24T13:34:35;34.05;;;14.00;;
57605;SDS011;43430;48.204;11.556;2023-01-24T13:37:06;32.70;;;13.35;;
57605;SDS011;43430;48.204;11.556;2023-01-24T13:39:41;33.15;;;13.25;;
57605;SDS011;43430;48.204;11.556;2023-01-24T13:42:23;35.78;;;14.60;;
57605;SDS011;43430;48.204;11.556;2023-01-24T13:44:56;37.13;;;13.70;;
57605;SDS011;43430;48.204;11.556;2023-01-24T13:47:22;34.10;;;13.55;;
57605;SDS011;43430;48.204;11.556;2023-01-24T13:55:03;36.85;;;14.77;;
57605;SDS011;43430;48.204;11.556;2023-01-24T13:57:50;35.30;;;14.82;;
57605;SDS011;43430;48.204;11.556;2023-01-24T14:03:21;35.42;;;13.82;;
57605;SDS011;43430;48.204;11.556;2023-01-24T14:13:41;35.80;;;15.63;;
57605;SDS011;43430;48.204;11.556;2023-01-24T14:21:44;37.85;;;15.00;;
57605;SDS011;43430;48.204;11.556;2023-01-24T14:24:35;36.58;;;15.57;;
57605;SDS011;43430;48.204;11.556;2023-01-24T14:35:19;39.10;;;13.65;;
57605;SDS011;43430;48.204;11.556;2023-01-24T14:37:48;49.42;;;18.08;;
57605;SDS011;43430;48.204;11.556;2023-01-24T14:40:22;38.72;;;14.77;;
57605;SDS011;43430;48.204;11.556;2023-01-24T14:43:01;35.47;;;15.30;;
57605;SDS011;43430;48.204;11.556;2023-01-24T14:45:29;41.67;;;14.65;;
57605;SDS011;43430;48.204;11.556;2023-01-24T14:47:56;40.92;;;18.20;;
57605;SDS011;43430;48.204;11.556;2023-01-24T14:50:27;39.35;;;16.30;;
57605;SDS011;43430;48.204;11.556;2023-01-24T14:52:58;37.97;;;16.02;;
57605;SDS011;43430;48.204;11.556;2023-01-24T14:55:30;36.50;;;16.38;;
57605;SDS011;43430;48.204;11.556;2023-01-24T14:58:14;39.38;;;15.63;;
57605;SDS011;43430;48.204;11.556;2023-01-24T15:00:42;37.92;;;17.38;;
57605;SDS011;43430;48.204;11.556;2023-01-24T15:03:10;36.65;;;16.08;;
57605;SDS011;43430;48.204;11.556;2023-01-24T15:05:40;33.90;;;14.60;;
57605;SDS011;43430;48.204;11.556;2023-01-24T15:08:06;34.13;;;14.50;;
57605;SDS011;43430;48.204;11.556;2023-01-24T15:10:40;35.83;;;15.02;;
57605;SDS011;43430;48.204;11.556;2023-01-24T15:13:07;40.75;;;15.95;;
57605;SDS011;43430;48.204;11.556;2023-01-24T15:15:42;39.22;;;15.38;;
57605;SDS011;43430;48.204;11.556;2023-01-24T15:18:18;34.35;;;14.65;;
57605;SDS011;43430;48.204;11.556;2023-01-24T15:20:52;32.78;;;13.63;;
57605;SDS011;43430;48.204;11.556;2023-01-24T15:23:19;41.28;;;15.60;;
57605;SDS011;43430;48.204;11.556;2023-01-24T15:25:49;42.97;;;15.38;;
57605;SDS011;43430;48.204;11.556;2023-01-24T15:28:48;30.63;;;13.73;;
57605;SDS011;43430;48.204;11.556;2023-01-24T15:31:17;37.83;;;15.70;;
57605;SDS011;43430;48.204;11.556;2023-01-24T15:33:45;40.10;;;15.30;;
57605;SDS011;43430;48.204;11.556;2023-01-24T15:36:31;40.50;;;15.70;;
57605;SDS011;43430;48.204;11.556;2023-01-24T15:38:58;32.70;;;13.85;;
57605;SDS011;43430;48.204;11.556;2023-01-24T15:41:28;33.03;;;13.70;;
57605;SDS011;43430;48.204;11.556;2023-01-24T15:44:18;36.05;;;14.80;;
57605;SDS011;43430;48.204;11.556;2023-01-24T15:46:44;30.77;;;13.75;;
57605;SDS011;43430;48.204;11.556;2023-01-24T15:49:32;35.03;;;14.68;;
57605;SDS011;43430;48.204;11.556;2023-01-24T15:52:03;38.10;;;13.45;;
57605;SDS011;43430;48.204;11.556;2023-01-24T15:54:46;35.40;;;14.50;;
57605;SDS011;43430;48.204;11.556;2023-01-24T15:57:25;37.75;;;15.27;;
57605;SDS011;43430;48.204;11.556;2023-01-24T15:59:51;33.85;;;15.07;;
57605;SDS011;43430;48.204;11.556;2023-01-24T16:02:18;34.63;;;16.67;;
57605;SDS011;43430;48.204;11.556;2023-01-24T16:04:44;33.40;;;14.45;;
57605;SDS011;43430;48.204;11.556;2023-01-24T16:07:13;34.88;;;15.20;;
57605;SDS011;43430;48.204;11.556;2023-01-24T16:09:43;38.72;;;14.63;;
57605;SDS011;43430;48.204;11.556;2023-01-24T16:12:11;32.15;;;14.98;;
57605;SDS011;43430;48.204;11.556;2023-01-24T16:14:40;35.35;;;15.75;;
57605;SDS011;43430;48.204;11.556;2023-01-24T16:19:37;38.00;;;15.95;;
57605;SDS011;43430;48.204;11.556;2023-01-24T16:22:02;35.78;;;15.75;;
57605;SDS011;43430;48.204;11.556;2023-01-24T16:24:28;32.67;;;14.13;;
57605;SDS011;43430;48.204;11.556;2023-01-24T16:26:53;33.22;;;15.32;;
57605;SDS011;43430;48.204;11.556;2023-01-24T16:29:25;37.25;;;14.95;;
57605;SDS011;43430;48.204;11.556;2023-01-24T16:34:18;32.63;;;13.48;;
57605;SDS011;43430;48.204;11.556;2023-01-24T16:36:44;30.50;;;14.20;;
57605;SDS011;43430;48.204;11.556;2023-01-24T16:39:14;36.28;;;15.35;;
57605;SDS011;43430;48.204;11.556;2023-01-24T16:41:44;33.88;;;14.43;;
57605;SDS011;43430;48.204;11.556;2023-01-24T16:44:14;29.27;;;12.40;;
57605;SDS011;43430;48.204;11.556;2023-01-24T16:46:39;32.88;;;15.68;;
57605;SDS011;43430;48.204;11.556;2023-01-24T16:49:05;39.20;;;15.48;;
57605;SDS011;43430;48.204;11.556;2023-01-24T16:51:31;36.70;;;16.58;;